PWSweather.com
Personal Weather Stations
Station Observations
WAIROAHB
Wairoa, Northern Hawkes Bay -NZ 4108

WairoaNorthern Hawkes Bay -NZ 4108

Lat: -39.04516934, Lon: 177.4263989

Elevation: 156

Station Type: WS3083

http://wairoa.net/weather/index.htm

High Low Average
Temperature 89.4°F31.9°C 64.6°F18.1°C 76.5°F24.7°C
Dew Point 69.8°F21.0°C 55.8°F13.2°C 60.9°F16.1°C
Winds 12.1 mph 19.5 kmh Calm Calm 5.0 mph SW8.0 kmh SW
Wind Gusts 16.8 mph27.0 kmh -- 10.0 mph16.1 kmh
Humidity 87% 36% 60%
Pressure 30.49 in1032.5 mb 29.96 in1014.6 mb -
Precipitation 0.00 in0.0 mm - -
Hour Temp Dew Point Humidity Winds Wind Gusts Pressure Precip Precip Rate Daily Precip Total
12:00 AM 72.3°F22.4°C 62.4°F16.9°C 71% 3.1 mph NNW5.0 kmh NNW 8.3 mph13.4 kmh 29.98 in1015.2 mb 0.00 in0.0 mm 0.00 in0.0 mm 0.00 in0.0 mm
12:10 AM 72.3°F22.4°C 62.4°F16.9°C 71% 4.5 mph NNW7.2 kmh NNW 8.3 mph13.4 kmh 29.99 in1015.6 mb 0.00 in0.0 mm 0.00 in0.0 mm 0.00 in0.0 mm
12:20 AM 72.3°F22.4°C 62.4°F16.9°C 71% 3.8 mph N6.1 kmh N 8.3 mph13.4 kmh 29.99 in1015.6 mb 0.00 in0.0 mm 0.00 in0.0 mm 0.00 in0.0 mm
12:30 AM 72.0°F22.2°C 62.1°F16.7°C 71% 2.2 mph NW3.5 kmh NW 5.4 mph8.7 kmh 29.99 in1015.6 mb 0.00 in0.0 mm 0.00 in0.0 mm 0.00 in0.0 mm
12:40 AM 70.9°F21.6°C 62.2°F16.8°C 74% 1.6 mph NW2.6 kmh NW 3.8 mph6.1 kmh 29.98 in1015.2 mb 0.00 in0.0 mm 0.00 in0.0 mm 0.00 in0.0 mm
12:50 AM 70.0°F21.1°C 62.1°F16.7°C 76% 1.6 mph W2.6 kmh W 3.1 mph5.0 kmh 29.98 in1015.2 mb 0.00 in0.0 mm 0.00 in0.0 mm 0.00 in0.0 mm
01:00 AM 69.3°F20.7°C 62.5°F16.9°C 79% Calm Calm 3.1 mph5.0 kmh 29.98 in1015.2 mb 0.00 in0.0 mm 0.00 in0.0 mm 0.00 in0.0 mm
01:10 AM 68.5°F20.3°C 62.2°F16.8°C 80% Calm Calm -- 29.98 in1015.2 mb 0.00 in0.0 mm 0.00 in0.0 mm 0.00 in0.0 mm
01:20 AM 67.8°F19.9°C 62.1°F16.7°C 82% Calm Calm -- 29.97 in1014.9 mb 0.00 in0.0 mm 0.00 in0.0 mm 0.00 in0.0 mm
01:30 AM 67.3°F19.6°C 62.0°F16.7°C 83% Calm Calm -- 29.97 in1014.9 mb 0.00 in0.0 mm 0.00 in0.0 mm 0.00 in0.0 mm
01:40 AM 67.3°F19.6°C 62.3°F16.8°C 84% 2.2 mph W3.5 kmh W 3.1 mph5.0 kmh 29.97 in1014.9 mb 0.00 in0.0 mm 0.00 in0.0 mm 0.00 in0.0 mm
01:50 AM 66.9°F19.4°C 62.0°F16.7°C 84% 1.6 mph W2.6 kmh W 3.8 mph6.1 kmh 29.97 in1014.9 mb 0.00 in0.0 mm 0.00 in0.0 mm 0.00 in0.0 mm
02:00 AM 66.6°F19.2°C 61.6°F16.4°C 84% Calm Calm 2.2 mph3.5 kmh 29.97 in1014.9 mb 0.00 in0.0 mm 0.00 in0.0 mm 0.00 in0.0 mm
02:10 AM 66.0°F18.9°C 61.4°F16.3°C 85% Calm Calm -- 29.97 in1014.9 mb 0.00 in0.0 mm 0.00 in0.0 mm 0.00 in0.0 mm
02:20 AM 66.0°F18.9°C 61.7°F16.5°C 86% Calm Calm 1.6 mph2.6 kmh 29.97 in1014.9 mb 0.00 in0.0 mm 0.00 in0.0 mm 0.00 in0.0 mm
02:30 AM 65.7°F18.7°C 61.7°F16.5°C 87% 1.6 mph NW2.6 kmh NW 3.1 mph5.0 kmh 29.97 in1014.9 mb 0.00 in0.0 mm 0.00 in0.0 mm 0.00 in0.0 mm
02:40 AM 65.5°F18.6°C 61.5°F16.4°C 87% 3.1 mph NW5.0 kmh NW 6.0 mph9.7 kmh 29.96 in1014.6 mb 0.00 in0.0 mm 0.00 in0.0 mm 0.00 in0.0 mm
02:50 AM 67.6°F19.8°C 60.2°F15.7°C 77% 6.0 mph NW9.7 kmh NW 11.4 mph18.3 kmh 29.96 in1014.6 mb 0.00 in0.0 mm 0.00 in0.0 mm 0.00 in0.0 mm
03:00 AM 69.6°F20.9°C 58.6°F14.8°C 68% 3.8 mph WNW6.1 kmh WNW 12.1 mph19.5 kmh 29.96 in1014.6 mb 0.00 in0.0 mm 0.00 in0.0 mm 0.00 in0.0 mm
03:10 AM 69.1°F20.6°C 57.7°F14.3°C 67% 3.1 mph WNW5.0 kmh WNW 9.2 mph14.8 kmh 29.97 in1014.9 mb 0.00 in0.0 mm 0.00 in0.0 mm 0.00 in0.0 mm
03:20 AM 69.4°F20.8°C 57.2°F14.0°C 65% 3.8 mph NW6.1 kmh NW 6.0 mph9.7 kmh 29.98 in1015.2 mb 0.00 in0.0 mm 0.00 in0.0 mm 0.00 in0.0 mm
03:30 AM 69.6°F20.9°C 56.9°F13.8°C 64% 4.5 mph NW7.2 kmh NW 6.0 mph9.7 kmh 29.98 in1015.2 mb 0.00 in0.0 mm 0.00 in0.0 mm 0.00 in0.0 mm
03:40 AM 70.2°F21.2°C 56.6°F13.7°C 62% 3.8 mph NW6.1 kmh NW 6.0 mph9.7 kmh 29.99 in1015.6 mb 0.00 in0.0 mm 0.00 in0.0 mm 0.00 in0.0 mm
03:50 AM 70.3°F21.3°C 55.8°F13.2°C 60% 3.8 mph NW6.1 kmh NW 7.6 mph12.2 kmh 29.98 in1015.2 mb 0.00 in0.0 mm 0.00 in0.0 mm 0.00 in0.0 mm
04:00 AM 70.3°F21.3°C 55.8°F13.2°C 60% 3.1 mph NW5.0 kmh NW 8.3 mph13.4 kmh 29.98 in1015.2 mb 0.00 in0.0 mm 0.00 in0.0 mm 0.00 in0.0 mm
04:10 AM 70.0°F21.1°C 55.9°F13.3°C 61% 3.8 mph NW6.1 kmh NW 7.6 mph12.2 kmh 29.99 in1015.6 mb 0.00 in0.0 mm 0.00 in0.0 mm 0.00 in0.0 mm
04:20 AM 68.7°F20.4°C 56.5°F13.6°C 65% 3.1 mph NW5.0 kmh NW 6.9 mph11.1 kmh 29.99 in1015.6 mb 0.00 in0.0 mm 0.00 in0.0 mm 0.00 in0.0 mm
04:30 AM 66.7°F19.3°C 57.1°F13.9°C 71% 0.7 mph NW1.1 kmh NW 5.4 mph8.7 kmh 30.00 in1015.9 mb 0.00 in0.0 mm 0.00 in0.0 mm 0.00 in0.0 mm
04:40 AM 65.3°F18.5°C 57.6°F14.2°C 76% 0.7 mph WNW1.1 kmh WNW 3.1 mph5.0 kmh 30.00 in1015.9 mb 0.00 in0.0 mm 0.00 in0.0 mm 0.00 in0.0 mm
04:50 AM 64.6°F18.1°C 57.6°F14.2°C 78% 1.6 mph W2.6 kmh W 3.8 mph6.1 kmh 30.01 in1016.3 mb 0.00 in0.0 mm 0.00 in0.0 mm 0.00 in0.0 mm
05:00 AM 64.8°F18.2°C 57.4°F14.1°C 77% 2.2 mph NW3.5 kmh NW 5.4 mph8.7 kmh 30.01 in1016.3 mb 0.00 in0.0 mm 0.00 in0.0 mm 0.00 in0.0 mm
05:10 AM 65.3°F18.5°C 57.2°F14.0°C 75% 2.2 mph NW3.5 kmh NW 4.5 mph7.2 kmh 30.01 in1016.3 mb 0.00 in0.0 mm 0.00 in0.0 mm 0.00 in0.0 mm
05:20 AM 66.4°F19.1°C 57.1°F13.9°C 72% 0.7 mph NW1.1 kmh NW 3.8 mph6.1 kmh 30.02 in1016.6 mb 0.00 in0.0 mm 0.00 in0.0 mm 0.00 in0.0 mm
05:30 AM 66.7°F19.3°C 57.4°F14.1°C 72% 3.1 mph NNW5.0 kmh NNW 4.5 mph7.2 kmh 30.01 in1016.3 mb 0.00 in0.0 mm 0.00 in0.0 mm 0.00 in0.0 mm
05:40 AM 68.7°F20.4°C 57.3°F14.1°C 67% 3.1 mph NNW5.0 kmh NNW 6.9 mph11.1 kmh 30.02 in1016.6 mb 0.00 in0.0 mm 0.00 in0.0 mm 0.00 in0.0 mm
05:50 AM 69.6°F20.9°C 57.8°F14.3°C 66% 3.8 mph N6.1 kmh N 6.9 mph11.1 kmh 30.02 in1016.6 mb 0.00 in0.0 mm 0.00 in0.0 mm 0.00 in0.0 mm
06:00 AM 70.9°F21.6°C 57.7°F14.3°C 63% 5.4 mph NNW8.7 kmh NNW 9.2 mph14.8 kmh 30.02 in1016.6 mb 0.00 in0.0 mm 0.00 in0.0 mm 0.00 in0.0 mm
06:10 AM 71.6°F22.0°C 57.5°F14.2°C 61% 3.8 mph NNW6.1 kmh NNW 7.6 mph12.2 kmh 30.02 in1016.6 mb 0.00 in0.0 mm 0.00 in0.0 mm 0.00 in0.0 mm
06:20 AM 72.7°F22.6°C 58.0°F14.4°C 60% 3.8 mph N6.1 kmh N 8.3 mph13.4 kmh 30.03 in1016.9 mb 0.00 in0.0 mm 0.00 in0.0 mm 0.00 in0.0 mm
06:30 AM 72.1°F22.3°C 57.5°F14.2°C 60% 6.0 mph NNW9.7 kmh NNW 9.2 mph14.8 kmh 30.04 in1017.3 mb 0.00 in0.0 mm 0.00 in0.0 mm 0.00 in0.0 mm
06:40 AM 73.0°F22.8°C 58.8°F14.9°C 61% 5.4 mph NNW8.7 kmh NNW 9.2 mph14.8 kmh 30.04 in1017.3 mb 0.00 in0.0 mm 0.00 in0.0 mm 0.00 in0.0 mm
06:50 AM 73.6°F23.1°C 58.4°F14.7°C 59% 6.0 mph N9.7 kmh N 9.2 mph14.8 kmh 30.04 in1017.3 mb 0.00 in0.0 mm 0.00 in0.0 mm 0.00 in0.0 mm
07:00 AM 74.5°F23.6°C 58.8°F14.9°C 58% 3.8 mph N6.1 kmh N 9.2 mph14.8 kmh 30.03 in1016.9 mb 0.00 in0.0 mm 0.00 in0.0 mm 0.00 in0.0 mm
07:10 AM 74.7°F23.7°C 58.9°F14.9°C 58% 5.4 mph N8.7 kmh N 9.8 mph15.8 kmh 30.03 in1016.9 mb 0.00 in0.0 mm 0.00 in0.0 mm 0.00 in0.0 mm
07:20 AM 74.3°F23.5°C 58.6°F14.8°C 58% 6.9 mph N11.1 kmh N 13.6 mph21.9 kmh 30.02 in1016.6 mb 0.00 in0.0 mm 0.00 in0.0 mm 0.00 in0.0 mm
07:30 AM 74.8°F23.8°C 58.6°F14.8°C 57% 7.6 mph NNW12.2 kmh NNW 13.6 mph21.9 kmh 30.02 in1016.6 mb 0.00 in0.0 mm 0.00 in0.0 mm 0.00 in0.0 mm
07:40 AM 75.0°F23.9°C 58.8°F14.9°C 57% 9.2 mph N14.8 kmh N 15.9 mph25.6 kmh 30.02 in1016.6 mb 0.00 in0.0 mm 0.00 in0.0 mm 0.00 in0.0 mm
07:50 AM 75.7°F24.3°C 59.5°F15.3°C 57% 7.6 mph N12.2 kmh N 15.9 mph25.6 kmh 30.02 in1016.6 mb 0.00 in0.0 mm 0.00 in0.0 mm 0.00 in0.0 mm
08:00 AM 76.3°F24.6°C 58.5°F14.7°C 54% 8.3 mph NNW13.4 kmh NNW 16.8 mph27.0 kmh 30.01 in1016.3 mb 0.00 in0.0 mm 0.00 in0.0 mm 0.00 in0.0 mm
08:10 AM 76.8°F24.9°C 59.0°F15.0°C 54% 9.8 mph NNW15.8 kmh NNW 15.2 mph24.5 kmh 30.00 in1015.9 mb 0.00 in0.0 mm 0.00 in0.0 mm 0.00 in0.0 mm
08:20 AM 77.0°F25.0°C 58.1°F14.5°C 52% 7.6 mph NNW12.2 kmh NNW 16.8 mph27.0 kmh 30.00 in1015.9 mb 0.00 in0.0 mm 0.00 in0.0 mm 0.00 in0.0 mm
08:30 AM 77.4°F25.2°C 58.4°F14.7°C 52% 8.3 mph NNW13.4 kmh NNW 15.2 mph24.5 kmh 30.00 in1015.9 mb 0.00 in0.0 mm 0.00 in0.0 mm 0.00 in0.0 mm
08:40 AM 77.9°F25.5°C 57.8°F14.3°C 50% 10.7 mph NNW17.2 kmh NNW 15.2 mph24.5 kmh 30.00 in1015.9 mb 0.00 in0.0 mm 0.00 in0.0 mm 0.00 in0.0 mm
08:50 AM 78.4°F25.8°C 57.7°F14.3°C 49% 8.3 mph NNW13.4 kmh NNW 15.2 mph24.5 kmh 30.01 in1016.3 mb 0.00 in0.0 mm 0.00 in0.0 mm 0.00 in0.0 mm
09:00 AM 79.2°F26.2°C 57.8°F14.3°C 48% 5.4 mph N8.7 kmh N 13.0 mph20.9 kmh 30.01 in1016.3 mb 0.00 in0.0 mm 0.00 in0.0 mm 0.00 in0.0 mm
09:10 AM 79.3°F26.3°C 58.6°F14.8°C 49% 6.0 mph NNW9.7 kmh NNW 13.6 mph21.9 kmh 30.00 in1015.9 mb 0.00 in0.0 mm 0.00 in0.0 mm 0.00 in0.0 mm
09:20 AM 79.9°F26.6°C 59.6°F15.3°C 50% 9.8 mph NW15.8 kmh NW 13.6 mph21.9 kmh 30.00 in1015.9 mb 0.00 in0.0 mm 0.00 in0.0 mm 0.00 in0.0 mm
09:30 AM 81.0°F27.2°C 59.5°F15.3°C 48% 6.9 mph NNW11.1 kmh NNW 13.6 mph21.9 kmh 30.00 in1015.9 mb 0.00 in0.0 mm 0.00 in0.0 mm 0.00 in0.0 mm
09:40 AM 81.1°F27.3°C 58.4°F14.7°C 46% 5.4 mph NNW8.7 kmh NNW 10.7 mph17.2 kmh 30.00 in1015.9 mb 0.00 in0.0 mm 0.00 in0.0 mm 0.00 in0.0 mm
09:50 AM 82.2°F27.9°C 59.4°F15.2°C 46% 8.3 mph N13.4 kmh N 14.5 mph23.3 kmh 30.00 in1015.9 mb 0.00 in0.0 mm 0.00 in0.0 mm 0.00 in0.0 mm
10:00 AM 82.9°F28.3°C 60.7°F15.9°C 47% 8.3 mph NNW13.4 kmh NNW 10.7 mph17.2 kmh 30.00 in1015.9 mb 0.00 in0.0 mm 0.00 in0.0 mm 0.00 in0.0 mm
10:10 AM 83.3°F28.5°C 61.0°F16.1°C 47% 6.9 mph NNW11.1 kmh NNW 10.7 mph17.2 kmh 30.00 in1015.9 mb 0.00 in0.0 mm 0.00 in0.0 mm 0.00 in0.0 mm
10:20 AM 84.0°F28.9°C 61.7°F16.5°C 47% 5.4 mph NNW8.7 kmh NNW 12.1 mph19.5 kmh 29.99 in1015.6 mb 0.00 in0.0 mm 0.00 in0.0 mm 0.00 in0.0 mm
10:30 AM 84.2°F29.0°C 60.6°F15.9°C 45% 5.4 mph N8.7 kmh N 15.2 mph24.5 kmh 29.99 in1015.6 mb 0.00 in0.0 mm 0.00 in0.0 mm 0.00 in0.0 mm
10:40 AM 84.9°F29.4°C 61.3°F16.3°C 45% 6.0 mph N9.7 kmh N 11.4 mph18.3 kmh 29.99 in1015.6 mb 0.00 in0.0 mm 0.00 in0.0 mm 0.00 in0.0 mm
10:50 AM 85.8°F29.9°C 61.4°F16.3°C 44% 4.5 mph NNW7.2 kmh NNW 13.0 mph20.9 kmh 29.98 in1015.2 mb 0.00 in0.0 mm 0.00 in0.0 mm 0.00 in0.0 mm
11:00 AM 85.3°F29.6°C 61.0°F16.1°C 44% 7.6 mph NNW12.2 kmh NNW 12.1 mph19.5 kmh 29.99 in1015.6 mb 0.00 in0.0 mm 0.00 in0.0 mm 0.00 in0.0 mm
11:10 AM 86.4°F30.2°C 61.3°F16.3°C 43% 6.0 mph NW9.7 kmh NW 13.0 mph20.9 kmh 29.98 in1015.2 mb 0.00 in0.0 mm 0.00 in0.0 mm 0.00 in0.0 mm
11:20 AM 86.0°F30.0°C 60.3°F15.7°C 42% 6.9 mph WNW11.1 kmh WNW 12.1 mph19.5 kmh 29.99 in1015.6 mb 0.00 in0.0 mm 0.00 in0.0 mm 0.00 in0.0 mm
11:30 AM 86.9°F30.5°C 61.8°F16.6°C 43% 5.4 mph WNW8.7 kmh WNW 11.4 mph18.3 kmh 29.99 in1015.6 mb 0.00 in0.0 mm 0.00 in0.0 mm 0.00 in0.0 mm
11:40 AM 85.6°F29.8°C 61.3°F16.3°C 44% 6.9 mph WNW11.1 kmh WNW 10.7 mph17.2 kmh 29.98 in1015.2 mb 0.00 in0.0 mm 0.00 in0.0 mm 0.00 in0.0 mm
11:50 AM 86.9°F30.5°C 61.8°F16.6°C 43% 4.5 mph W7.2 kmh W 8.3 mph13.4 kmh 29.98 in1015.2 mb 0.00 in0.0 mm 0.00 in0.0 mm 0.00 in0.0 mm
12:00 PM 84.9°F29.4°C 61.3°F16.3°C 45% 4.5 mph SE7.2 kmh SE 12.1 mph19.5 kmh 29.98 in1015.2 mb 0.00 in0.0 mm 0.00 in0.0 mm 0.00 in0.0 mm
12:10 PM 84.9°F29.4°C 61.9°F16.6°C 46% 6.0 mph SW9.7 kmh SW 9.2 mph14.8 kmh 29.97 in1014.9 mb 0.00 in0.0 mm 0.00 in0.0 mm 0.00 in0.0 mm
12:20 PM 85.3°F29.6°C 61.6°F16.4°C 45% 4.5 mph NW7.2 kmh NW 9.8 mph15.8 kmh 29.98 in1015.2 mb 0.00 in0.0 mm 0.00 in0.0 mm 0.00 in0.0 mm
12:30 PM 84.2°F29.0°C 61.8°F16.6°C 47% 9.8 mph N15.8 kmh N 13.0 mph20.9 kmh 29.98 in1015.2 mb 0.00 in0.0 mm 0.00 in0.0 mm 0.00 in0.0 mm
12:40 PM 85.1°F29.5°C 62.0°F16.7°C 46% 6.0 mph N9.7 kmh N 11.4 mph18.3 kmh 29.98 in1015.2 mb 0.00 in0.0 mm 0.00 in0.0 mm 0.00 in0.0 mm
01:00 PM 85.5°F29.7°C 61.1°F16.2°C 44% 5.4 mph WSW8.7 kmh WSW 9.2 mph14.8 kmh 29.98 in1015.2 mb 0.00 in0.0 mm 0.00 in0.0 mm 0.00 in0.0 mm
01:10 PM 84.9°F29.4°C 61.9°F16.6°C 46% 3.8 mph ESE6.1 kmh ESE 13.6 mph21.9 kmh 29.98 in1015.2 mb 0.00 in0.0 mm 0.00 in0.0 mm 0.00 in0.0 mm
01:20 PM 86.2°F30.1°C 61.8°F16.6°C 44% 3.8 mph SE6.1 kmh SE 9.8 mph15.8 kmh 29.98 in1015.2 mb 0.00 in0.0 mm 0.00 in0.0 mm 0.00 in0.0 mm
01:30 PM 87.1°F30.6°C 61.9°F16.6°C 43% 6.9 mph SE11.1 kmh SE 9.8 mph15.8 kmh 29.98 in1015.2 mb 0.00 in0.0 mm 0.00 in0.0 mm 0.00 in0.0 mm
01:40 PM 86.4°F30.2°C 61.9°F16.6°C 44% 4.5 mph ESE7.2 kmh ESE 10.7 mph17.2 kmh 29.98 in1015.2 mb 0.00 in0.0 mm 0.00 in0.0 mm 0.00 in0.0 mm
01:50 PM 87.8°F31.0°C 61.2°F16.2°C 41% 6.0 mph SE9.7 kmh SE 9.2 mph14.8 kmh 29.97 in1014.9 mb 0.00 in0.0 mm 0.00 in0.0 mm 0.00 in0.0 mm
02:00 PM 87.6°F30.9°C 62.4°F16.9°C 43% 5.4 mph S8.7 kmh S 9.8 mph15.8 kmh 29.97 in1014.9 mb 0.00 in0.0 mm 0.00 in0.0 mm 0.00 in0.0 mm
02:10 PM 87.4°F30.8°C 60.8°F16.0°C 41% 3.8 mph SE6.1 kmh SE 5.4 mph8.7 kmh 30.34 in1027.4 mb 0.00 in0.0 mm 0.00 in0.0 mm 0.00 in0.0 mm
02:20 PM 87.6°F30.9°C 61.7°F16.5°C 42% 1.6 mph N2.6 kmh N 9.2 mph14.8 kmh 30.34 in1027.4 mb 0.00 in0.0 mm 0.00 in0.0 mm 0.00 in0.0 mm
02:30 PM 88.2°F31.2°C 58.7°F14.8°C 37% 5.4 mph S8.7 kmh S 8.3 mph13.4 kmh 30.33 in1027.1 mb 0.00 in0.0 mm 0.00 in0.0 mm 0.00 in0.0 mm
02:40 PM 88.2°F31.2°C 60.1°F15.6°C 39% 3.8 mph ESE6.1 kmh ESE 9.8 mph15.8 kmh 30.33 in1027.1 mb 0.00 in0.0 mm 0.00 in0.0 mm 0.00 in0.0 mm
02:50 PM 88.5°F31.4°C 59.7°F15.4°C 38% 6.9 mph SE11.1 kmh SE 9.2 mph14.8 kmh 30.33 in1027.1 mb 0.00 in0.0 mm 0.00 in0.0 mm 0.00 in0.0 mm
03:00 PM 88.7°F31.5°C 59.9°F15.5°C 38% 6.9 mph SE11.1 kmh SE 10.7 mph17.2 kmh 30.33 in1027.1 mb 0.00 in0.0 mm 0.00 in0.0 mm 0.00 in0.0 mm
03:10 PM 88.0°F31.1°C 60.0°F15.6°C 39% 5.4 mph ESE8.7 kmh ESE 10.7 mph17.2 kmh 30.33 in1027.1 mb 0.00 in0.0 mm 0.00 in0.0 mm 0.00 in0.0 mm
03:20 PM 88.9°F31.6°C 59.3°F15.2°C 37% 4.5 mph ESE7.2 kmh ESE 9.2 mph14.8 kmh 30.33 in1027.1 mb 0.00 in0.0 mm 0.00 in0.0 mm 0.00 in0.0 mm
03:30 PM 89.4°F31.9°C 59.0°F15.0°C 36% 3.1 mph SE5.0 kmh SE 9.8 mph15.8 kmh 30.33 in1027.1 mb 0.00 in0.0 mm 0.00 in0.0 mm 0.00 in0.0 mm
03:40 PM 88.3°F31.3°C 58.8°F14.9°C 37% 3.8 mph SE6.1 kmh SE 12.1 mph19.5 kmh 30.33 in1027.1 mb 0.00 in0.0 mm 0.00 in0.0 mm 0.00 in0.0 mm
03:50 PM 87.1°F30.6°C 58.4°F14.7°C 38% 5.4 mph SE8.7 kmh SE 11.4 mph18.3 kmh 30.33 in1027.1 mb 0.00 in0.0 mm 0.00 in0.0 mm 0.00 in0.0 mm
04:00 PM 86.9°F30.5°C 59.0°F15.0°C 39% 4.5 mph ESE7.2 kmh ESE 11.4 mph18.3 kmh 30.33 in1027.1 mb 0.00 in0.0 mm 0.00 in0.0 mm 0.00 in0.0 mm
04:10 PM 87.1°F30.6°C 61.3°F16.3°C 42% 7.6 mph SE12.2 kmh SE 11.4 mph18.3 kmh 30.33 in1027.1 mb 0.00 in0.0 mm 0.00 in0.0 mm 0.00 in0.0 mm
04:20 PM 86.4°F30.2°C 62.6°F17.0°C 45% 5.4 mph SE8.7 kmh SE 11.4 mph18.3 kmh 30.33 in1027.1 mb 0.00 in0.0 mm 0.00 in0.0 mm 0.00 in0.0 mm
04:30 PM 85.6°F29.8°C 67.7°F19.8°C 55% 4.5 mph SE7.2 kmh SE 10.7 mph17.2 kmh 30.33 in1027.1 mb 0.00 in0.0 mm 0.00 in0.0 mm 0.00 in0.0 mm
04:40 PM 82.0°F27.8°C 67.8°F19.9°C 62% 5.4 mph SE8.7 kmh SE 10.7 mph17.2 kmh 30.33 in1027.1 mb 0.00 in0.0 mm 0.00 in0.0 mm 0.00 in0.0 mm
04:50 PM 82.0°F27.8°C 68.3°F20.2°C 63% 3.1 mph SE5.0 kmh SE 10.7 mph17.2 kmh 30.33 in1027.1 mb 0.00 in0.0 mm 0.00 in0.0 mm 0.00 in0.0 mm
05:00 PM 81.3°F27.4°C 69.8°F21.0°C 68% 6.9 mph SE11.1 kmh SE 10.7 mph17.2 kmh 30.34 in1027.4 mb 0.00 in0.0 mm 0.00 in0.0 mm 0.00 in0.0 mm
05:10 PM 82.0°F27.8°C 69.6°F20.9°C 66% 5.4 mph SE8.7 kmh SE 12.1 mph19.5 kmh 30.34 in1027.4 mb 0.00 in0.0 mm 0.00 in0.0 mm 0.00 in0.0 mm
05:20 PM 79.3°F26.3°C 66.1°F18.9°C 64% 3.1 mph ESE5.0 kmh ESE 12.1 mph19.5 kmh 30.34 in1027.4 mb 0.00 in0.0 mm 0.00 in0.0 mm 0.00 in0.0 mm
05:30 PM 77.9°F25.5°C 67.0°F19.4°C 69% 5.4 mph ESE8.7 kmh ESE 11.4 mph18.3 kmh 30.34 in1027.4 mb 0.00 in0.0 mm 0.00 in0.0 mm 0.00 in0.0 mm
05:40 PM 77.7°F25.4°C 66.4°F19.1°C 68% 2.2 mph N3.5 kmh N 12.1 mph19.5 kmh 30.35 in1027.8 mb 0.00 in0.0 mm 0.00 in0.0 mm 0.00 in0.0 mm
05:50 PM 77.7°F25.4°C 65.5°F18.6°C 66% 5.4 mph SE8.7 kmh SE 13.6 mph21.9 kmh 30.35 in1027.8 mb 0.00 in0.0 mm 0.00 in0.0 mm 0.00 in0.0 mm
06:00 PM 77.2°F25.1°C 61.8°F16.6°C 59% 6.9 mph SE11.1 kmh SE 15.2 mph24.5 kmh 30.36 in1028.1 mb 0.00 in0.0 mm 0.00 in0.0 mm 0.00 in0.0 mm
06:10 PM 77.0°F25.0°C 62.1°F16.7°C 60% 7.6 mph E12.2 kmh E 16.8 mph27.0 kmh 30.36 in1028.1 mb 0.00 in0.0 mm 0.00 in0.0 mm 0.00 in0.0 mm
06:20 PM 77.0°F25.0°C 62.1°F16.7°C 60% 8.3 mph E13.4 kmh E 15.9 mph25.6 kmh 30.37 in1028.4 mb 0.00 in0.0 mm 0.00 in0.0 mm 0.00 in0.0 mm
06:30 PM 76.8°F24.9°C 62.4°F16.9°C 61% 5.4 mph SE8.7 kmh SE 16.8 mph27.0 kmh 30.38 in1028.8 mb 0.00 in0.0 mm 0.00 in0.0 mm 0.00 in0.0 mm
06:40 PM 77.0°F25.0°C 61.6°F16.4°C 59% 8.3 mph E13.4 kmh E 14.5 mph23.3 kmh 30.38 in1028.8 mb 0.00 in0.0 mm 0.00 in0.0 mm 0.00 in0.0 mm
06:50 PM 76.8°F24.9°C 61.0°F16.1°C 58% 6.9 mph ESE11.1 kmh ESE 13.6 mph21.9 kmh 30.38 in1028.8 mb 0.00 in0.0 mm 0.00 in0.0 mm 0.00 in0.0 mm
07:00 PM 76.5°F24.7°C 60.6°F15.9°C 58% 7.6 mph SE12.2 kmh SE 15.9 mph25.6 kmh 30.39 in1029.1 mb 0.00 in0.0 mm 0.00 in0.0 mm 0.00 in0.0 mm
07:10 PM 76.1°F24.5°C 60.8°F16.0°C 59% 6.0 mph ESE9.7 kmh ESE 13.0 mph20.9 kmh 30.40 in1029.5 mb 0.00 in0.0 mm 0.00 in0.0 mm 0.00 in0.0 mm
07:20 PM 75.7°F24.3°C 61.4°F16.3°C 61% 4.5 mph SE7.2 kmh SE 13.6 mph21.9 kmh 30.41 in1029.8 mb 0.00 in0.0 mm 0.00 in0.0 mm 0.00 in0.0 mm
07:30 PM 75.2°F24.0°C 62.2°F16.8°C 64% 5.4 mph ESE8.7 kmh ESE 10.7 mph17.2 kmh 30.42 in1030.1 mb 0.00 in0.0 mm 0.00 in0.0 mm 0.00 in0.0 mm
07:40 PM 74.7°F23.7°C 65.5°F18.6°C 73% 3.1 mph SE5.0 kmh SE 12.1 mph19.5 kmh 30.43 in1030.5 mb 0.00 in0.0 mm 0.00 in0.0 mm 0.00 in0.0 mm
07:50 PM 73.9°F23.3°C 65.2°F18.4°C 74% 3.8 mph E6.1 kmh E 10.7 mph17.2 kmh 30.43 in1030.5 mb 0.00 in0.0 mm 0.00 in0.0 mm 0.00 in0.0 mm
08:00 PM 73.2°F22.9°C 65.2°F18.4°C 76% 4.5 mph SW7.2 kmh SW 8.3 mph13.4 kmh 30.44 in1030.8 mb 0.00 in0.0 mm 0.00 in0.0 mm 0.00 in0.0 mm
08:10 PM 73.0°F22.8°C 65.4°F18.6°C 77% 3.1 mph SE5.0 kmh SE 7.6 mph12.2 kmh 30.44 in1030.8 mb 0.00 in0.0 mm 0.00 in0.0 mm 0.00 in0.0 mm
08:20 PM 73.0°F22.8°C 66.5°F19.2°C 80% 2.2 mph SE3.5 kmh SE 5.4 mph8.7 kmh 30.44 in1030.8 mb 0.00 in0.0 mm 0.00 in0.0 mm 0.00 in0.0 mm
08:30 PM 72.5°F22.5°C 62.6°F17.0°C 71% 5.4 mph SE8.7 kmh SE 13.6 mph21.9 kmh 30.44 in1030.8 mb 0.00 in0.0 mm 0.00 in0.0 mm 0.00 in0.0 mm
08:40 PM 72.5°F22.5°C 62.6°F17.0°C 71% 9.8 mph NW15.8 kmh NW 16.8 mph27.0 kmh 30.45 in1031.2 mb 0.00 in0.0 mm 0.00 in0.0 mm 0.00 in0.0 mm
08:50 PM 72.5°F22.5°C 63.0°F17.2°C 72% 12.1 mph SW19.5 kmh SW 15.9 mph25.6 kmh 30.46 in1031.5 mb 0.00 in0.0 mm 0.00 in0.0 mm 0.00 in0.0 mm
09:00 PM 72.3°F22.4°C 62.0°F16.7°C 70% 12.1 mph SW19.5 kmh SW 15.9 mph25.6 kmh 30.45 in1031.2 mb 0.00 in0.0 mm 0.00 in0.0 mm 0.00 in0.0 mm
09:10 PM 72.1°F22.3°C 61.8°F16.6°C 70% 9.8 mph WSW15.8 kmh WSW 15.9 mph25.6 kmh 30.46 in1031.5 mb 0.00 in0.0 mm 0.00 in0.0 mm 0.00 in0.0 mm
09:20 PM 72.1°F22.3°C 62.2°F16.8°C 71% 5.4 mph NE8.7 kmh NE 12.1 mph19.5 kmh 30.47 in1031.8 mb 0.00 in0.0 mm 0.00 in0.0 mm 0.00 in0.0 mm
09:30 PM 72.0°F22.2°C 61.7°F16.5°C 70% 4.5 mph WSW7.2 kmh WSW 13.0 mph20.9 kmh 30.47 in1031.8 mb 0.00 in0.0 mm 0.00 in0.0 mm 0.00 in0.0 mm
09:40 PM 72.0°F22.2°C 61.7°F16.5°C 70% 4.5 mph SW7.2 kmh SW 12.1 mph19.5 kmh 30.47 in1031.8 mb 0.00 in0.0 mm 0.00 in0.0 mm 0.00 in0.0 mm
09:50 PM 72.0°F22.2°C 61.7°F16.5°C 70% 4.5 mph NW7.2 kmh NW 9.8 mph15.8 kmh 30.47 in1031.8 mb 0.00 in0.0 mm 0.00 in0.0 mm 0.00 in0.0 mm
10:00 PM 72.0°F22.2°C 61.3°F16.3°C 69% 5.4 mph W8.7 kmh W 9.8 mph15.8 kmh 30.47 in1031.8 mb 0.00 in0.0 mm 0.00 in0.0 mm 0.00 in0.0 mm
10:10 PM 72.0°F22.2°C 60.0°F15.6°C 66% 7.6 mph NW12.2 kmh NW 15.2 mph24.5 kmh 30.47 in1031.8 mb 0.00 in0.0 mm 0.00 in0.0 mm 0.00 in0.0 mm
10:20 PM 71.8°F22.1°C 60.3°F15.7°C 67% 5.4 mph WNW8.7 kmh WNW 11.4 mph18.3 kmh 30.48 in1032.2 mb 0.00 in0.0 mm 0.00 in0.0 mm 0.00 in0.0 mm
10:30 PM 71.8°F22.1°C 60.7°F15.9°C 68% 4.5 mph N7.2 kmh N 9.8 mph15.8 kmh 30.48 in1032.2 mb 0.00 in0.0 mm 0.00 in0.0 mm 0.00 in0.0 mm
10:40 PM 71.6°F22.0°C 61.7°F16.5°C 71% 5.4 mph W8.7 kmh W 8.3 mph13.4 kmh 30.48 in1032.2 mb 0.00 in0.0 mm 0.00 in0.0 mm 0.00 in0.0 mm
10:50 PM 71.6°F22.0°C 61.7°F16.5°C 71% 4.5 mph NW7.2 kmh NW 9.2 mph14.8 kmh 30.48 in1032.2 mb 0.00 in0.0 mm 0.00 in0.0 mm 0.00 in0.0 mm
11:00 PM 71.6°F22.0°C 61.7°F16.5°C 71% 4.5 mph NW7.2 kmh NW 8.3 mph13.4 kmh 30.48 in1032.2 mb 0.00 in0.0 mm 0.00 in0.0 mm 0.00 in0.0 mm
11:10 PM 71.6°F22.0°C 62.1°F16.7°C 72% 7.6 mph SW12.2 kmh SW 9.8 mph15.8 kmh 30.48 in1032.2 mb 0.00 in0.0 mm 0.00 in0.0 mm 0.00 in0.0 mm
11:20 PM 71.6°F22.0°C 62.1°F16.7°C 72% 5.4 mph WNW8.7 kmh WNW 9.2 mph14.8 kmh 30.48 in1032.2 mb 0.00 in0.0 mm 0.00 in0.0 mm 0.00 in0.0 mm
11:30 PM 71.4°F21.9°C 62.7°F17.1°C 74% 8.3 mph W13.4 kmh W 12.1 mph19.5 kmh 30.48 in1032.2 mb 0.00 in0.0 mm 0.00 in0.0 mm 0.00 in0.0 mm
11:40 PM 71.2°F21.8°C 61.8°F16.6°C 72% 5.4 mph SW8.7 kmh SW 14.5 mph23.3 kmh 30.49 in1032.5 mb 0.00 in0.0 mm 0.00 in0.0 mm 0.00 in0.0 mm
11:50 PM 71.2°F21.8°C 62.2°F16.8°C 73% 6.0 mph WSW9.7 kmh WSW 12.1 mph19.5 kmh 30.49 in1032.5 mb 0.00 in0.0 mm 0.00 in0.0 mm 0.00 in0.0 mm